West Point, NE

9:14 PM CST on November 23, 2014 (GMT -0600)
Stefan Memorial | Change Station
CLOSE
Current Station
Airport
Location: Norfolk,
Elevation: 1549 ft
Nearby Weather Stations

Elev 1549 ft 41.99 °N, 97.44 °W | Updated 18 minutes ago

Overcast
Overcast
35 °F
Feels Like 22 °F
N
30
Wind Variable Wind from NW
Gusts 43 mph

Today
High -- | Low -- °F
--% Chance of Precip.
Yesterday
High -- | Low -- °F
Precip. -- in
7:25 AM 5:00 PM
Waxing Crescent, 3% visible
Pressure 29.62 in
Visibility 10.0 miles
Clouds Overcast 3700 ft
Windchill 22 °F
Dew Point 23 °F
Humidity 61%
Rainfall 0.05 in
Snow Depth Not available.
UV 0 out of 12
Pollen .10 out of 12
Air Quality Not available.
Flu Activity Not available.
METAR KOFK 240256Z AUTO 32026G37KT 10SM OVC037 02/M05 A2959 RMK AO2 PK WND 32037/0247 SLP028 T00171050 53012

More Conditions Fewer Conditions

Pressure 29.62 in
Visibility 10.0 miles
Clouds Overcast 3700 ft
Windchill 22 °F
Dew Point 23 °F
Humidity 61%
Rainfall 0.05 in
Snow Depth Not available.
UV 0 out of 12
Pollen .10 out of 12
Air Quality Not available.
Flu Activity Not available.
METAR KOFK 240256Z AUTO 32026G37KT 10SM OVC037 02/M05 A2959 RMK AO2 PK WND 32037/0247 SLP028 T00171050 53012

More Conditions Fewer Conditions

10-Day Weather Forecast

Almanac

Astronomy

Nov. 23, 2014 Rise Set
Actual Time
Civil Twilight
Nautical Twilight
Astronomical Twilight
Moon
Length of Visible Light
Length of Day
Tomorrow will be .
, % of the Moon is Illuminated

Today's Extremes

State Highs State Lows

Community

WunderPhotos

Upload Photos

1,773,257 photos uploaded!

WunderBlogs® & News

Nearby

Air Quality

  Air Quality AQ Index Pollutant
Not available.

Snow Depth

Station Depth Elevation

Earthquake Activity

City Distance Mag. Time & Date
Minimum magnitude displayed is 2.5.

Coastal Water Temperatures

Place Temperature

Nearby Weather Stations